EWG12J EKCH-EDDL
Flight info
| Callsign | EWG12J |
|---|---|
| Flight time | 0h 57m |
| Altitude | 36000 |
| Route | NEXEN T503 MICOS DCT KEGAB DCT DENOL T851 HALME |
| Aircraft | A321/M-SDE3FGHIRWY/LB1 |
Departure
| Time | 2026-05-03 22:21 |
|---|---|
| Airport | Copenhagen Kastrup Airport (EKCH) |
Arrival
| Time | 2026-05-03 23:18 |
|---|---|
| Airport | Düsseldorf Airport (EDDL) |
| Time | Latitude | Longitude | Altitude | Speed | Heading |
|---|---|---|---|---|---|
| 2026-05-03 21:16 | 55.62358 | 12.65058 | 25 ft | 0 kts | 270° |
| 2026-05-03 22:07 | 55.62357 | 12.65063 | -6 ft | 4 kts | 271° |
| 2026-05-03 22:07 | 55.62355 | 12.65100 | 21 ft | 4 kts | 273° |
| 2026-05-03 22:07 | 55.62356 | 12.65147 | 21 ft | 4 kts | 256° |
| 2026-05-03 22:07 | 55.62365 | 12.65191 | 21 ft | 4 kts | 236° |
| 2026-05-03 22:08 | 55.62372 | 12.65208 | 24 ft | 1 kts | 232° |
| 2026-05-03 22:08 | 55.62372 | 12.65209 | 24 ft | 1 kts | 232° |
| 2026-05-03 22:10 | 55.62373 | 12.65209 | 24 ft | 0 kts | 232° |
| 2026-05-03 22:14 | 55.62372 | 12.65209 | 24 ft | 1 kts | 231° |
| 2026-05-03 22:14 | 55.62355 | 12.65192 | 24 ft | 5 kts | 191° |
| 2026-05-03 22:14 | 55.62296 | 12.65200 | 22 ft | 12 kts | 174° |
| 2026-05-03 22:15 | 55.62208 | 12.65176 | 23 ft | 11 kts | 207° |
| 2026-05-03 22:15 | 55.62195 | 12.65163 | 23 ft | 0 kts | 210° |
| 2026-05-03 22:15 | 55.62182 | 12.65149 | 25 ft | 1 kts | 211° |
| 2026-05-03 22:15 | 55.62178 | 12.65145 | 25 ft | 0 kts | 211° |
| 2026-05-03 22:16 | 55.62171 | 12.65138 | 24 ft | 2 kts | 211° |
| 2026-05-03 22:16 | 55.62151 | 12.65116 | 24 ft | 5 kts | 212° |
| 2026-05-03 22:16 | 55.62109 | 12.65067 | 22 ft | 10 kts | 213° |
| 2026-05-03 22:16 | 55.62092 | 12.65047 | 23 ft | 5 kts | 214° |
| 2026-05-03 22:17 | 55.62048 | 12.64994 | 20 ft | 10 kts | 213° |
| 2026-05-03 22:17 | 55.61974 | 12.64909 | 19 ft | 15 kts | 213° |
| 2026-05-03 22:17 | 55.61869 | 12.64788 | 18 ft | 20 kts | 211° |
| 2026-05-03 22:17 | 55.61754 | 12.64658 | 23 ft | 20 kts | 212° |
| 2026-05-03 22:18 | 55.61657 | 12.64530 | 23 ft | 16 kts | 240° |
| 2026-05-03 22:18 | 55.61649 | 12.64361 | 25 ft | 14 kts | 266° |
| 2026-05-03 22:18 | 55.61647 | 12.64316 | 25 ft | 0 kts | 266° |
| 2026-05-03 22:18 | 55.61647 | 12.64315 | 25 ft | 0 kts | 266° |
| 2026-05-03 22:19 | 55.61647 | 12.64311 | 25 ft | 1 kts | 267° |
| 2026-05-03 22:19 | 55.61647 | 12.64293 | 26 ft | 2 kts | 267° |
| 2026-05-03 22:19 | 55.61645 | 12.64255 | 26 ft | 4 kts | 264° |
| 2026-05-03 22:19 | 55.61642 | 12.64200 | 28 ft | 5 kts | 265° |
| 2026-05-03 22:20 | 55.61639 | 12.64122 | 28 ft | 8 kts | 264° |
| 2026-05-03 22:20 | 55.61599 | 12.64025 | 26 ft | 13 kts | 221° |
| 2026-05-03 22:20 | 55.61513 | 12.63895 | 24 ft | 21 kts | 221° |
| 2026-05-03 22:20 | 55.61242 | 12.63471 | 27 ft | 88 kts | 221° |
| 2026-05-03 22:21 | 55.60615 | 12.62500 | 27 ft | 149 kts | 223° |
| 2026-05-03 22:21 | 55.59801 | 12.61133 | 490 ft | 163 kts | 224° |
| 2026-05-03 22:21 | 55.58940 | 12.59823 | 1240 ft | 165 kts | 220° |
| 2026-05-03 22:21 | 55.58031 | 12.58450 | 1718 ft | 181 kts | 220° |
| 2026-05-03 22:22 | 55.57050 | 12.56961 | 1908 ft | 201 kts | 220° |
| 2026-05-03 22:22 | 55.55901 | 12.55414 | 2195 ft | 212 kts | 215° |
| 2026-05-03 22:22 | 55.54693 | 12.53928 | 2685 ft | 211 kts | 214° |
| 2026-05-03 22:22 | 55.53485 | 12.52475 | 3198 ft | 209 kts | 214° |
| 2026-05-03 22:23 | 55.52288 | 12.51038 | 3655 ft | 210 kts | 214° |
| 2026-05-03 22:23 | 55.51018 | 12.49507 | 3775 ft | 233 kts | 214° |
| 2026-05-03 22:23 | 55.49642 | 12.47838 | 4281 ft | 243 kts | 215° |
| 2026-05-03 22:23 | 55.48247 | 12.46144 | 5042 ft | 244 kts | 215° |
| 2026-05-03 22:24 | 55.46850 | 12.44443 | 5823 ft | 244 kts | 215° |
| 2026-05-03 22:24 | 55.45450 | 12.42735 | 6566 ft | 245 kts | 216° |
| 2026-05-03 22:24 | 55.44040 | 12.41015 | 7250 ft | 248 kts | 216° |
| 2026-05-03 22:24 | 55.42632 | 12.39298 | 7916 ft | 251 kts | 216° |
| 2026-05-03 22:25 | 55.41190 | 12.37541 | 8597 ft | 253 kts | 216° |
| 2026-05-03 22:25 | 55.39734 | 12.35771 | 9287 ft | 256 kts | 216° |
| 2026-05-03 22:25 | 55.38264 | 12.33985 | 9955 ft | 258 kts | 216° |
| 2026-05-03 22:25 | 55.36738 | 12.32126 | 10191 ft | 278 kts | 216° |
| 2026-05-03 22:26 | 55.35091 | 12.30119 | 10304 ft | 298 kts | 216° |
| 2026-05-03 22:26 | 55.33330 | 12.27980 | 10445 ft | 317 kts | 216° |
| 2026-05-03 22:26 | 55.31465 | 12.25716 | 10562 ft | 335 kts | 216° |
| 2026-05-03 22:26 | 55.29506 | 12.23345 | 10844 ft | 346 kts | 216° |
| 2026-05-03 22:27 | 55.27507 | 12.20932 | 11316 ft | 350 kts | 216° |
| 2026-05-03 22:27 | 55.25490 | 12.18502 | 11840 ft | 353 kts | 216° |
| 2026-05-03 22:27 | 55.23455 | 12.16054 | 12358 ft | 356 kts | 216° |
| 2026-05-03 22:27 | 55.21401 | 12.13584 | 12908 ft | 359 kts | 216° |
| 2026-05-03 22:28 | 55.19336 | 12.11088 | 13448 ft | 362 kts | 216° |
| 2026-05-03 22:28 | 55.17278 | 12.08510 | 13945 ft | 365 kts | 217° |
| 2026-05-03 22:28 | 55.15224 | 12.05873 | 14400 ft | 368 kts | 218° |
| 2026-05-03 22:28 | 55.13155 | 12.03193 | 14845 ft | 371 kts | 218° |
| 2026-05-03 22:29 | 55.11094 | 12.00525 | 15301 ft | 374 kts | 218° |
| 2026-05-03 22:29 | 55.08996 | 11.97819 | 15737 ft | 377 kts | 218° |
| 2026-05-03 22:29 | 55.06878 | 11.95102 | 16183 ft | 379 kts | 218° |
| 2026-05-03 22:29 | 55.04735 | 11.92366 | 16610 ft | 382 kts | 217° |
| 2026-05-03 22:30 | 55.02575 | 11.89616 | 17036 ft | 385 kts | 217° |
| 2026-05-03 22:30 | 55.00400 | 11.86856 | 17452 ft | 388 kts | 217° |
| 2026-05-03 22:30 | 54.98207 | 11.84078 | 17866 ft | 391 kts | 217° |
| 2026-05-03 22:30 | 54.95999 | 11.81284 | 18262 ft | 394 kts | 217° |
| 2026-05-03 22:31 | 54.93771 | 11.78467 | 18617 ft | 396 kts | 217° |
| 2026-05-03 22:31 | 54.91534 | 11.75645 | 18990 ft | 399 kts | 217° |
| 2026-05-03 22:31 | 54.89278 | 11.72805 | 19354 ft | 401 kts | 217° |
| 2026-05-03 22:31 | 54.87038 | 11.69992 | 19717 ft | 404 kts | 217° |
| 2026-05-03 22:32 | 54.84755 | 11.67135 | 20078 ft | 406 kts | 217° |
| 2026-05-03 22:32 | 54.82452 | 11.64252 | 20456 ft | 409 kts | 217° |
| 2026-05-03 22:32 | 54.80142 | 11.61360 | 20817 ft | 411 kts | 217° |
| 2026-05-03 22:32 | 54.77815 | 11.58445 | 21168 ft | 413 kts | 217° |
| 2026-05-03 22:33 | 54.75479 | 11.55522 | 21513 ft | 416 kts | 217° |
| 2026-05-03 22:33 | 54.73126 | 11.52586 | 21855 ft | 418 kts | 217° |
| 2026-05-03 22:33 | 54.70754 | 11.49632 | 22194 ft | 421 kts | 217° |
| 2026-05-03 22:33 | 54.68368 | 11.46669 | 22530 ft | 423 kts | 217° |
| 2026-05-03 22:34 | 54.65969 | 11.43690 | 22866 ft | 426 kts | 217° |
| 2026-05-03 22:34 | 54.63559 | 11.40695 | 23198 ft | 428 kts | 217° |
| 2026-05-03 22:34 | 54.61135 | 11.37689 | 23513 ft | 431 kts | 217° |
| 2026-05-03 22:34 | 54.58692 | 11.34670 | 23798 ft | 433 kts | 217° |
| 2026-05-03 22:35 | 54.56240 | 11.31644 | 24089 ft | 434 kts | 217° |
| 2026-05-03 22:35 | 54.53776 | 11.28615 | 24380 ft | 436 kts | 217° |
| 2026-05-03 22:35 | 54.51332 | 11.25635 | 24663 ft | 437 kts | 216° |
| 2026-05-03 22:35 | 54.48842 | 11.22617 | 24932 ft | 439 kts | 216° |
| 2026-05-03 22:36 | 54.46340 | 11.19588 | 25191 ft | 440 kts | 216° |
| 2026-05-03 22:36 | 54.43835 | 11.16557 | 25440 ft | 441 kts | 216° |
| 2026-05-03 22:36 | 54.41321 | 11.13519 | 25683 ft | 443 kts | 216° |
| 2026-05-03 22:36 | 54.38798 | 11.10470 | 25905 ft | 444 kts | 216° |
| 2026-05-03 22:37 | 54.36267 | 11.07413 | 26123 ft | 445 kts | 216° |
| 2026-05-03 22:37 | 54.34584 | 11.05385 | 26262 ft | 446 kts | 216° |
| 2026-05-03 22:37 | 54.32049 | 11.02332 | 26549 ft | 445 kts | 216° |
| 2026-05-03 22:37 | 54.29518 | 10.99294 | 26859 ft | 444 kts | 216° |
| 2026-05-03 22:38 | 54.26989 | 10.96277 | 27150 ft | 443 kts | 216° |
| 2026-05-03 22:38 | 54.24461 | 10.93284 | 27447 ft | 442 kts | 216° |
| 2026-05-03 22:38 | 54.21931 | 10.90300 | 27741 ft | 441 kts | 216° |
| 2026-05-03 22:38 | 54.19404 | 10.87325 | 28057 ft | 440 kts | 216° |
| 2026-05-03 22:39 | 54.16880 | 10.84362 | 28355 ft | 439 kts | 216° |
| 2026-05-03 22:39 | 54.14364 | 10.81417 | 28654 ft | 439 kts | 216° |
| 2026-05-03 22:39 | 54.11850 | 10.78476 | 28957 ft | 438 kts | 216° |
| 2026-05-03 22:39 | 54.09346 | 10.75540 | 29266 ft | 437 kts | 216° |
| 2026-05-03 22:40 | 54.06845 | 10.72607 | 29565 ft | 436 kts | 216° |
| 2026-05-03 22:40 | 54.04341 | 10.69678 | 29867 ft | 435 kts | 216° |
| 2026-05-03 22:40 | 54.01845 | 10.66764 | 30136 ft | 435 kts | 216° |
| 2026-05-03 22:40 | 53.99351 | 10.63858 | 30385 ft | 434 kts | 216° |
| 2026-05-03 22:41 | 53.96866 | 10.60970 | 30636 ft | 433 kts | 216° |
| 2026-05-03 22:41 | 53.94379 | 10.58083 | 30886 ft | 432 kts | 216° |
| 2026-05-03 22:41 | 53.91899 | 10.55206 | 31142 ft | 431 kts | 216° |
| 2026-05-03 22:41 | 53.89423 | 10.52339 | 31396 ft | 430 kts | 216° |
| 2026-05-03 22:42 | 53.86948 | 10.49481 | 31636 ft | 430 kts | 216° |
| 2026-05-03 22:42 | 53.84479 | 10.46633 | 31877 ft | 429 kts | 216° |
| 2026-05-03 22:42 | 53.82044 | 10.43824 | 32127 ft | 428 kts | 216° |
| 2026-05-03 22:42 | 53.79552 | 10.40951 | 32368 ft | 428 kts | 216° |
| 2026-05-03 22:43 | 53.77126 | 10.38155 | 32593 ft | 428 kts | 216° |
| 2026-05-03 22:43 | 53.74668 | 10.35327 | 32828 ft | 427 kts | 216° |
| 2026-05-03 22:43 | 53.72212 | 10.32504 | 33078 ft | 426 kts | 216° |
| 2026-05-03 22:43 | 53.69756 | 10.29689 | 33304 ft | 426 kts | 216° |
| 2026-05-03 22:44 | 53.67305 | 10.26887 | 33533 ft | 426 kts | 216° |
| 2026-05-03 22:44 | 53.64854 | 10.24091 | 33752 ft | 425 kts | 216° |
| 2026-05-03 22:44 | 53.62400 | 10.21296 | 33978 ft | 425 kts | 216° |
| 2026-05-03 22:44 | 53.59947 | 10.18503 | 34154 ft | 425 kts | 216° |
| 2026-05-03 22:45 | 53.57499 | 10.15717 | 34332 ft | 425 kts | 216° |
| 2026-05-03 22:45 | 53.55079 | 10.12971 | 34499 ft | 425 kts | 216° |
| 2026-05-03 22:45 | 53.52623 | 10.10189 | 34668 ft | 425 kts | 216° |
| 2026-05-03 22:45 | 53.50174 | 10.07413 | 34833 ft | 425 kts | 216° |
| 2026-05-03 22:46 | 53.47720 | 10.04636 | 34995 ft | 425 kts | 216° |
| 2026-05-03 22:46 | 53.45267 | 10.01865 | 35151 ft | 425 kts | 216° |
| 2026-05-03 22:46 | 53.42810 | 9.99098 | 35338 ft | 425 kts | 216° |
| 2026-05-03 22:46 | 53.40355 | 9.96339 | 35499 ft | 425 kts | 216° |
| 2026-05-03 22:47 | 53.37897 | 9.93580 | 35658 ft | 425 kts | 216° |
| 2026-05-03 22:47 | 53.35444 | 9.90825 | 35828 ft | 425 kts | 216° |
| 2026-05-03 22:47 | 53.32983 | 9.88068 | 35913 ft | 426 kts | 216° |
| 2026-05-03 22:48 | 53.28054 | 9.82559 | 35926 ft | 426 kts | 216° |
| 2026-05-03 22:48 | 53.23125 | 9.77055 | 35924 ft | 426 kts | 216° |
| 2026-05-03 22:49 | 53.18191 | 9.71564 | 35928 ft | 427 kts | 216° |
| 2026-05-03 22:49 | 53.13279 | 9.66107 | 35925 ft | 427 kts | 216° |
| 2026-05-03 22:50 | 53.08344 | 9.60644 | 35925 ft | 427 kts | 216° |
| 2026-05-03 22:50 | 53.03380 | 9.55174 | 35936 ft | 428 kts | 216° |
| 2026-05-03 22:51 | 52.98403 | 9.49713 | 35946 ft | 428 kts | 216° |
| 2026-05-03 22:51 | 52.93424 | 9.44261 | 35944 ft | 428 kts | 216° |
| 2026-05-03 22:52 | 52.88196 | 9.39492 | 35945 ft | 431 kts | 209° |
| 2026-05-03 22:52 | 52.82830 | 9.35081 | 35951 ft | 431 kts | 209° |
| 2026-05-03 22:53 | 52.77448 | 9.30663 | 35947 ft | 431 kts | 208° |
| 2026-05-03 22:53 | 52.72105 | 9.26302 | 35952 ft | 431 kts | 208° |
| 2026-05-03 22:54 | 52.66717 | 9.21931 | 35951 ft | 431 kts | 208° |
| 2026-05-03 22:54 | 52.61331 | 9.17568 | 35956 ft | 431 kts | 208° |
| 2026-05-03 22:55 | 52.55950 | 9.13208 | 35959 ft | 431 kts | 208° |
| 2026-05-03 22:55 | 52.50571 | 9.08849 | 35963 ft | 431 kts | 208° |
| 2026-05-03 22:56 | 52.45183 | 9.04502 | 35962 ft | 431 kts | 208° |
| 2026-05-03 22:56 | 52.39796 | 9.00182 | 35966 ft | 431 kts | 208° |
| 2026-05-03 22:57 | 52.34406 | 8.95877 | 35964 ft | 431 kts | 208° |
| 2026-05-03 22:57 | 52.29062 | 8.91609 | 35966 ft | 430 kts | 208° |
| 2026-05-03 22:58 | 52.23677 | 8.87307 | 35744 ft | 430 kts | 208° |
| 2026-05-03 22:58 | 52.20989 | 8.85168 | 35493 ft | 430 kts | 208° |
| 2026-05-03 22:58 | 52.18297 | 8.83031 | 35239 ft | 431 kts | 208° |
| 2026-05-03 22:58 | 52.15597 | 8.80889 | 34985 ft | 432 kts | 208° |
| 2026-05-03 22:59 | 52.12887 | 8.78744 | 34743 ft | 433 kts | 208° |
| 2026-05-03 22:59 | 52.10175 | 8.76605 | 34347 ft | 433 kts | 208° |
| 2026-05-03 22:59 | 52.07458 | 8.74462 | 33515 ft | 436 kts | 208° |
| 2026-05-03 22:59 | 52.04749 | 8.72267 | 32747 ft | 434 kts | 212° |
| 2026-05-03 23:00 | 52.02265 | 8.69499 | 31961 ft | 432 kts | 222° |
| 2026-05-03 23:00 | 52.00145 | 8.66051 | 31125 ft | 432 kts | 232° |
| 2026-05-03 23:00 | 51.98443 | 8.62021 | 30222 ft | 434 kts | 242° |
| 2026-05-03 23:00 | 51.97220 | 8.57544 | 29225 ft | 436 kts | 252° |
| 2026-05-03 23:01 | 51.96488 | 8.52776 | 28282 ft | 437 kts | 258° |
| 2026-05-03 23:01 | 51.95879 | 8.47940 | 27271 ft | 439 kts | 258° |
| 2026-05-03 23:01 | 51.95254 | 8.43069 | 26245 ft | 442 kts | 257° |
| 2026-05-03 23:01 | 51.94620 | 8.38170 | 25135 ft | 446 kts | 257° |
| 2026-05-03 23:02 | 51.93983 | 8.33300 | 24149 ft | 448 kts | 257° |
| 2026-05-03 23:02 | 51.93331 | 8.28338 | 23128 ft | 450 kts | 257° |
| 2026-05-03 23:02 | 51.92686 | 8.23413 | 22322 ft | 444 kts | 256° |
| 2026-05-03 23:02 | 51.92054 | 8.18548 | 21545 ft | 439 kts | 256° |
| 2026-05-03 23:03 | 51.91426 | 8.13730 | 20734 ft | 435 kts | 256° |
| 2026-05-03 23:03 | 51.90799 | 8.08969 | 19947 ft | 430 kts | 256° |
| 2026-05-03 23:03 | 51.90174 | 8.04258 | 19178 ft | 425 kts | 256° |
| 2026-05-03 23:03 | 51.89553 | 7.99603 | 18419 ft | 421 kts | 255° |
| 2026-05-03 23:04 | 51.88938 | 7.94999 | 17598 ft | 416 kts | 255° |
| 2026-05-03 23:04 | 51.88327 | 7.90446 | 16855 ft | 410 kts | 255° |
| 2026-05-03 23:04 | 51.87725 | 7.85975 | 16128 ft | 404 kts | 255° |
| 2026-05-03 23:04 | 51.87130 | 7.81571 | 15413 ft | 398 kts | 255° |
| 2026-05-03 23:05 | 51.86543 | 7.77216 | 14728 ft | 394 kts | 255° |
| 2026-05-03 23:05 | 51.85955 | 7.72911 | 14059 ft | 388 kts | 253° |
| 2026-05-03 23:05 | 51.85095 | 7.68824 | 13382 ft | 381 kts | 244° |
| 2026-05-03 23:05 | 51.83968 | 7.64996 | 12788 ft | 373 kts | 243° |
| 2026-05-03 23:06 | 51.82857 | 7.61255 | 12199 ft | 366 kts | 243° |
| 2026-05-03 23:06 | 51.81768 | 7.57587 | 11630 ft | 358 kts | 243° |
| 2026-05-03 23:06 | 51.80705 | 7.54006 | 11293 ft | 345 kts | 243° |
| 2026-05-03 23:06 | 51.79699 | 7.50608 | 11167 ft | 327 kts | 243° |
| 2026-05-03 23:07 | 51.78741 | 7.47377 | 11049 ft | 311 kts | 242° |
| 2026-05-03 23:07 | 51.77826 | 7.44310 | 10922 ft | 296 kts | 242° |
| 2026-05-03 23:07 | 51.76954 | 7.41390 | 10799 ft | 282 kts | 242° |
| 2026-05-03 23:07 | 51.76125 | 7.38620 | 10551 ft | 275 kts | 242° |
| 2026-05-03 23:08 | 51.75300 | 7.35868 | 10298 ft | 270 kts | 242° |
| 2026-05-03 23:08 | 51.74484 | 7.33155 | 10063 ft | 268 kts | 242° |
| 2026-05-03 23:08 | 51.73671 | 7.30451 | 9845 ft | 266 kts | 242° |
| 2026-05-03 23:08 | 51.72862 | 7.27755 | 9736 ft | 267 kts | 242° |
| 2026-05-03 23:09 | 51.72052 | 7.25067 | 9604 ft | 267 kts | 242° |
| 2026-05-03 23:09 | 51.71186 | 7.22433 | 9468 ft | 265 kts | 234° |
| 2026-05-03 23:09 | 51.69963 | 7.20226 | 9345 ft | 264 kts | 219° |
| 2026-05-03 23:09 | 51.68417 | 7.18637 | 9213 ft | 264 kts | 205° |
| 2026-05-03 23:10 | 51.66711 | 7.17520 | 8856 ft | 265 kts | 203° |
| 2026-05-03 23:10 | 51.65004 | 7.16426 | 8426 ft | 264 kts | 203° |
| 2026-05-03 23:10 | 51.63293 | 7.15328 | 7990 ft | 264 kts | 203° |
| 2026-05-03 23:10 | 51.61586 | 7.14235 | 7571 ft | 264 kts | 203° |
| 2026-05-03 23:11 | 51.59888 | 7.13148 | 7162 ft | 263 kts | 203° |
| 2026-05-03 23:11 | 51.58198 | 7.12065 | 6787 ft | 261 kts | 203° |
| 2026-05-03 23:11 | 51.56528 | 7.10990 | 6431 ft | 260 kts | 203° |
| 2026-05-03 23:11 | 51.54855 | 7.09913 | 6040 ft | 258 kts | 203° |
| 2026-05-03 23:12 | 51.53189 | 7.08842 | 5630 ft | 258 kts | 203° |
| 2026-05-03 23:12 | 51.51526 | 7.07775 | 5219 ft | 258 kts | 202° |
| 2026-05-03 23:12 | 51.49845 | 7.06698 | 4792 ft | 258 kts | 202° |
| 2026-05-03 23:12 | 51.48185 | 7.05637 | 4427 ft | 256 kts | 202° |
| 2026-05-03 23:13 | 51.46531 | 7.04582 | 4064 ft | 254 kts | 202° |
| 2026-05-03 23:13 | 51.44916 | 7.03556 | 3894 ft | 244 kts | 202° |
| 2026-05-03 23:13 | 51.43390 | 7.02585 | 3796 ft | 228 kts | 202° |
| 2026-05-03 23:13 | 51.41963 | 7.01677 | 3679 ft | 213 kts | 202° |
| 2026-05-03 23:14 | 51.40619 | 7.00800 | 3586 ft | 206 kts | 207° |
| 2026-05-03 23:14 | 51.39485 | 6.99456 | 3469 ft | 199 kts | 226° |
| 2026-05-03 23:14 | 51.38657 | 6.97740 | 3171 ft | 191 kts | 232° |
| 2026-05-03 23:14 | 51.37872 | 6.96075 | 2896 ft | 181 kts | 231° |
| 2026-05-03 23:15 | 51.37131 | 6.94518 | 2632 ft | 170 kts | 232° |
| 2026-05-03 23:15 | 51.36445 | 6.93071 | 2399 ft | 160 kts | 232° |
| 2026-05-03 23:15 | 51.35791 | 6.91692 | 2187 ft | 150 kts | 232° |
| 2026-05-03 23:15 | 51.35174 | 6.90390 | 1996 ft | 145 kts | 232° |
| 2026-05-03 23:16 | 51.34567 | 6.89108 | 1811 ft | 144 kts | 231° |
| 2026-05-03 23:16 | 51.33964 | 6.87835 | 1620 ft | 144 kts | 232° |
| 2026-05-03 23:16 | 51.33359 | 6.86561 | 1428 ft | 144 kts | 231° |
| 2026-05-03 23:16 | 51.32752 | 6.85280 | 1244 ft | 145 kts | 231° |
| 2026-05-03 23:17 | 51.32145 | 6.84001 | 1046 ft | 144 kts | 232° |
| 2026-05-03 23:17 | 51.31538 | 6.82722 | 868 ft | 144 kts | 231° |
| 2026-05-03 23:17 | 51.30934 | 6.81450 | 690 ft | 143 kts | 232° |
| 2026-05-03 23:17 | 51.30338 | 6.80189 | 529 ft | 141 kts | 233° |
| 2026-05-03 23:18 | 51.29743 | 6.78929 | 292 ft | 141 kts | 231° |
| 2026-05-03 23:18 | 51.29164 | 6.77706 | 148 ft | 130 kts | 232° |
| 2026-05-03 23:18 | 51.28599 | 6.76547 | 137 ft | 101 kts | 233° |
| 2026-05-03 23:18 | 51.28302 | 6.75944 | 131 ft | 33 kts | 223° |
| 2026-05-03 23:19 | 51.28179 | 6.75655 | 125 ft | 31 kts | 236° |
| 2026-05-03 23:19 | 51.28050 | 6.75501 | 124 ft | 16 kts | 180° |
| 2026-05-03 23:19 | 51.28026 | 6.75509 | 124 ft | 0 kts | 159° |
| 2026-05-03 23:20 | 51.28026 | 6.75510 | 124 ft | 0 kts | 159° |
| 2026-05-03 23:20 | 51.28025 | 6.75510 | 124 ft | 0 kts | 159° |
| 2026-05-03 23:22 | 51.28022 | 6.75512 | 127 ft | 1 kts | 159° |
| 2026-05-03 23:22 | 51.28016 | 6.75515 | 127 ft | 2 kts | 159° |
| 2026-05-03 23:22 | 51.28000 | 6.75525 | 124 ft | 3 kts | 158° |
| 2026-05-03 23:23 | 51.27972 | 6.75546 | 124 ft | 6 kts | 155° |
| 2026-05-03 23:23 | 51.27928 | 6.75581 | 126 ft | 9 kts | 152° |
| 2026-05-03 23:23 | 51.27871 | 6.75649 | 123 ft | 11 kts | 118° |
| 2026-05-03 23:23 | 51.27860 | 6.75770 | 130 ft | 11 kts | 97° |
| 2026-05-03 23:24 | 51.27847 | 6.75905 | 131 ft | 14 kts | 97° |
| 2026-05-03 23:24 | 51.27843 | 6.76075 | 129 ft | 17 kts | 91° |
| 2026-05-03 23:24 | 51.27865 | 6.76171 | 127 ft | 0 kts | 14° |
| 2026-05-03 23:24 | 51.27870 | 6.76173 | 128 ft | 2 kts | 17° |
| 2026-05-03 23:25 | 51.27888 | 6.76192 | 125 ft | 0 kts | 42° |
| 2026-05-03 23:25 | 51.27895 | 6.76207 | 126 ft | 3 kts | 51° |
| 2026-05-03 23:26 | 51.27910 | 6.76240 | 125 ft | 0 kts | 57° |
| 2026-05-03 23:26 | 51.27911 | 6.76243 | 125 ft | 0 kts | 57° |